aviador You're here:

KGNB Decoded Metar

in
Report Time2017-11-18 14:10:00
UTC Time2017-11-18 14:11:51
Flight Rules vfr VFR
WindCalm
Visibility9999 m
Phenomena:N/A
Clouds:Scattered 022 Hf
Overcast 040 Hf
Expected CloudBase > 800 ft AGL from Temp-Dew spread
Ceiling4,000 ft
Temp-10°C
Dew Point-12°C (85% RH)
AAT-13.2°C
QNH1027 hPa
Raw Report
METAR KGNB 181410Z AUTO 00000KT 10SM SCT022 OVC040 M10/M12 A3032 RMK
AO2 T10961120=

Extra information for KGNB:More info

Social comments